MV Lockmaster — WDF4136 — position and weather

sailwx.info

Track history (hours):
 
Tides and Currents Weather Stations Pressure Air Temp Water Temp Dewpoint Dewpoint Depression Visibility Wind Speed Wind Dir Waves Ship Positions

MV Lockmaster

Owner: River Construction, Metaire, LA. More information available from US FCC via Universal Licensing System and Coast Guard Vessel Documentation Center.

Last reported at 2014-Nov-24 12:29 UTC. Time now 2014-Nov-24 17:59 UTC.
Position N 29°60' W 089°59'.

Type: Towing. MMSI: 367448420.

Date/timePositionNaut miles runAvg speedWind from/ knotsBaromVisibWave heightAir tempDewpointWater temp
2014-Nov-24 12:29N 29°60' W 089°59'0 0.1
2014-Nov-24 11:32N 29°60' W 089°59'3 2.7
2014-Nov-24 10:29N 29°58' W 090°02'1 0.6
2014-Nov-24 09:32N 29°58' W 090°02'3 1.4
2014-Nov-24 07:25N 29°56' W 089°59'3 3.0
2014-Nov-24 06:28N 29°58' W 090°02'0 0.5
2014-Nov-24 05:33N 29°58' W 090°01'2 2.2
2014-Nov-24 04:33N 29°60' W 089°60'0 0.4
2014-Nov-24 03:32N 29°60' W 089°59'0 0.0
2014-Nov-24 02:33N 29°60' W 089°59'0 0.0
2014-Nov-24 01:31N 29°60' W 089°59'0 0.0
2014-Nov-24 00:31N 29°60' W 089°59'0 0.3
2014-Nov-23 23:32N 29°60' W 089°60'0 0.1
2014-Nov-23 22:26N 29°60' W 089°60'0 0.0
2014-Nov-23 21:30N 29°60' W 089°60'0 0.0
2014-Nov-23 20:24N 29°60' W 089°60'5 0.3
2014-Nov-23 03:23N 29°57' W 090°04'0 0.4
2014-Nov-23 02:14N 29°57' W 090°04'0 0.2
2014-Nov-23 00:32N 29°57' W 090°03'5 1.1
2014-Nov-22 20:30N 29°60' W 089°59'0 0.2
2014-Nov-22 19:10N 29°60' W 089°59'0 0.0
2014-Nov-22 18:07N 29°60' W 089°59'0 0.0
2014-Nov-22 17:12N 29°60' W 089°59'0 0.0
2014-Nov-22 16:33N 29°60' W 089°59'0 0.0
2014-Nov-22 15:32N 29°60' W 089°59'0 0.0
2014-Nov-22 14:33N 29°60' W 089°59'0 0.0
2014-Nov-22 13:31N 29°60' W 089°59'0 0.1
2014-Nov-22 12:29N 29°60' W 089°59'0 0.0
2014-Nov-22 11:32N 29°60' W 089°59'0 0.2
2014-Nov-22 10:33N 29°60' W 089°59'0 0.2
2014-Nov-22 09:31N 29°60' W 089°59'0 0.0
2014-Nov-22 08:33N 29°60' W 089°59'0 0.0
2014-Nov-22 07:31N 29°60' W 089°59'0 0.0
2014-Nov-22 06:30N 29°60' W 089°59'0 0.0
2014-Nov-22 05:34N 29°60' W 089°59'0 0.0
2014-Nov-22 04:33N 29°60' W 089°59'2 2.3
2014-Nov-22 03:33N 29°58' W 090°01'2 1.8
2014-Nov-22 02:30N 29°58' W 090°03'1 0.6
2014-Nov-22 01:32N 29°57' W 090°04'0 0.4
2014-Nov-22 00:31N 29°57' W 090°03'5 0.3
2014-Nov-21 11:04N 29°60' W 089°59'0 0.0
2014-Nov-21 10:30N 29°60' W 089°59'0 0.0
2014-Nov-21 09:32N 29°60' W 089°59'0 0.0
2014-Nov-21 06:29N 29°60' W 089°59'0 0.0
2014-Nov-21 04:23N 29°60' W 089°59'0 0.0
2014-Nov-21 03:09N 29°60' W 089°59'0 0.0
2014-Nov-21 02:27N 29°60' W 089°59'0 0.0
2014-Nov-21 01:15N 29°60' W 089°59'0 0.0
2014-Nov-21 00:33N 29°60' W 089°59'0 0.0
2014-Nov-20 23:17N 29°60' W 089°59'0 0.1
2014-Nov-20 22:28N 30°00' W 089°59'0 0.1
2014-Nov-20 21:29N 29°60' W 089°59'0 0.0
2014-Nov-20 20:25N 29°60' W 089°59'0 0.0
2014-Nov-20 19:31N 29°60' W 089°59'0 0.0
2014-Nov-20 18:33N 29°60' W 089°59'0 0.0
2014-Nov-20 17:32N 29°60' W 089°59'0 0.0
2014-Nov-20 16:31N 29°60' W 089°59'0 0.0
2014-Nov-20 15:33N 29°60' W 089°59'0 0.0
2014-Nov-20 14:32N 29°60' W 089°59'0 0.0
2014-Nov-20 13:32N 29°60' W 089°59'0 0.0
2014-Nov-20 12:33N 29°60' W 089°59'0 0.0
2014-Nov-20 11:33N 29°60' W 089°59'0 0.0
2014-Nov-20 10:12N 29°60' W 089°59'0 0.0
2014-Nov-19 17:07N 29°60' W 089°59'0 0.0
2014-Nov-19 16:29N 29°60' W 089°59'0 0.0
2014-Nov-19 14:29N 29°60' W 089°59'0 0.0
2014-Nov-19 13:33N 29°60' W 089°59'0 0.0
2014-Nov-19 12:29N 29°60' W 089°59'0 0.0
2014-Nov-19 11:21N 29°60' W 089°59'0 0.0
2014-Nov-19 09:33N 29°60' W 089°59'0 0.0
2014-Nov-19 08:20N 29°60' W 089°59'0 0.0
2014-Nov-19 07:33N 29°60' W 089°59'0 0.1
2014-Nov-19 06:23N 29°60' W 089°59'0 0.1
2014-Nov-19 05:32N 29°60' W 089°59'0 0.1
2014-Nov-19 04:33N 30°00' W 089°59'4 3.7
2014-Nov-19 03:32N 30°01' W 089°55'4 3.8
2014-Nov-19 02:32N 29°60' W 089°59'0 0.0
2014-Nov-19 01:24N 29°60' W 089°59'3 3.3
2014-Nov-19 00:33N 29°58' W 090°02'0 0.1
2014-Nov-18 23:33N 29°58' W 090°02'4 2.7
2014-Nov-18 22:10N 29°56' W 089°58'5 0.2
2014-Nov-18 02:05N 29°60' W 089°59'0 0.0
2014-Nov-18 00:30N 29°60' W 089°59'0 0.0
2014-Nov-17 23:29N 29°60' W 089°59'0 0.0
2014-Nov-17 22:27N 29°60' W 089°59'0 0.1
2014-Nov-17 21:09N 29°60' W 089°60'0 0.3
2014-Nov-17 20:30N 29°60' W 089°59'0 0.0
2014-Nov-17 19:32N 29°60' W 089°59'0 0.0
2014-Nov-17 18:30N 29°60' W 089°59'0 0.0
2014-Nov-17 17:33N 29°60' W 089°59'0 0.0
2014-Nov-17 16:32N 29°60' W 089°59'0 0.0
2014-Nov-17 15:31N 29°60' W 089°59'0 0.0
2014-Nov-17 14:33N 29°60' W 089°59'0 0.0
2014-Nov-17 13:30N 29°60' W 089°59'0 0.0
2014-Nov-17 12:12N 29°60' W 089°59'6 0.6
2014-Nov-17 02:27N 29°55' W 090°04'0 0.0
2014-Nov-17 01:29N 29°55' W 090°04'6 2.0
2014-Nov-16 22:32N 29°60' W 089°59'0 0.0
2014-Nov-16 21:33N 29°60' W 089°59'5 2.4
2014-Nov-16 19:28N 30°01' W 089°54'3 2.5
2014-Nov-16 18:09N 30°00' W 089°57'4 6.6
2014-Nov-16 17:32N 29°58' W 090°02'1 0.2
2014-Nov-16 14:33N 29°57' W 090°02'3 2.6
2014-Nov-16 13:30N 29°60' W 090°00'2 2.4
2014-Nov-16 12:32N 29°58' W 090°02'3 0.2
2014-Nov-15 20:25N 29°60' W 089°59'0 0.0
2014-Nov-15 19:24N 29°60' W 089°59'0 0.0
2014-Nov-15 18:32N 29°60' W 089°59'0 0.0
2014-Nov-15 17:25N 29°60' W 089°59'0 0.0
2014-Nov-15 16:30N 29°60' W 089°59'2 2.0
2014-Nov-15 15:26N 30°00' W 089°57'1 0.9
2014-Nov-15 14:29N 30°00' W 089°58'1 1.5
2014-Nov-15 13:33N 29°60' W 089°59'0 0.0
2014-Nov-15 12:31N 29°60' W 089°59'2 2.3
2014-Nov-15 11:26N 30°00' W 089°57'1 0.7
2014-Nov-15 10:09N 30°00' W 089°58'2 2.7
2014-Nov-15 09:33N 29°60' W 089°59'0 0.0
2014-Nov-15 08:29N 29°60' W 089°59'0 0.0
2014-Nov-15 07:26N 29°60' W 089°59'0 0.0
2014-Nov-15 06:33N 29°60' W 089°59'0 0.0
2014-Nov-14 21:29N 29°60' W 089°59'0 0.0
2014-Nov-14 19:33N 29°60' W 089°59'0 0.0
2014-Nov-14 18:11N 29°60' W 089°59'0 0.0
2014-Nov-14 17:23N 29°60' W 089°59'4 0.9
2014-Nov-14 12:31N 30°01' W 089°55'  
Track history (hours):
 
Tides and Currents Weather Stations Pressure Air Temp Water Temp Dewpoint Dewpoint Depression Visibility Wind Speed Wind Dir Waves Ship Positions

MV Lockmaster

Owner: River Construction, Metaire, LA. More information available from US FCC via Universal Licensing System and Coast Guard Vessel Documentation Center.

Last reported at 2014-Nov-24 12:29 UTC. Time now 2014-Nov-24 17:59 UTC.
Position N 29°60' W 089°59'.

Type: Towing. MMSI: 367448420.

Date/timePositionNaut miles runAvg speedWind from/ knotsBaromVisibWave heightAir tempDewpointWater temp
2014-Nov-24 12:29N 29°60' W 089°59'0 0.1
2014-Nov-24 11:32N 29°60' W 089°59'3 2.7
2014-Nov-24 10:29N 29°58' W 090°02'1 0.6
2014-Nov-24 09:32N 29°58' W 090°02'3 1.4
2014-Nov-24 07:25N 29°56' W 089°59'3 3.0
2014-Nov-24 06:28N 29°58' W 090°02'0 0.5
2014-Nov-24 05:33N 29°58' W 090°01'2 2.2
2014-Nov-24 04:33N 29°60' W 089°60'0 0.4
2014-Nov-24 03:32N 29°60' W 089°59'0 0.0
2014-Nov-24 02:33N 29°60' W 089°59'0 0.0
2014-Nov-24 01:31N 29°60' W 089°59'0 0.0
2014-Nov-24 00:31N 29°60' W 089°59'0 0.3
2014-Nov-23 23:32N 29°60' W 089°60'0 0.1
2014-Nov-23 22:26N 29°60' W 089°60'0 0.0
2014-Nov-23 21:30N 29°60' W 089°60'0 0.0
2014-Nov-23 20:24N 29°60' W 089°60'5 0.3
2014-Nov-23 03:23N 29°57' W 090°04'0 0.4
2014-Nov-23 02:14N 29°57' W 090°04'0 0.2
2014-Nov-23 00:32N 29°57' W 090°03'5 1.1
2014-Nov-22 20:30N 29°60' W 089°59'0 0.2
2014-Nov-22 19:10N 29°60' W 089°59'0 0.0
2014-Nov-22 18:07N 29°60' W 089°59'0 0.0
2014-Nov-22 17:12N 29°60' W 089°59'0 0.0
2014-Nov-22 16:33N 29°60' W 089°59'0 0.0
2014-Nov-22 15:32N 29°60' W 089°59'0 0.0
2014-Nov-22 14:33N 29°60' W 089°59'0 0.0
2014-Nov-22 13:31N 29°60' W 089°59'0 0.1
2014-Nov-22 12:29N 29°60' W 089°59'0 0.0
2014-Nov-22 11:32N 29°60' W 089°59'0 0.2
2014-Nov-22 10:33N 29°60' W 089°59'0 0.2
2014-Nov-22 09:31N 29°60' W 089°59'0 0.0
2014-Nov-22 08:33N 29°60' W 089°59'0 0.0
2014-Nov-22 07:31N 29°60' W 089°59'0 0.0
2014-Nov-22 06:30N 29°60' W 089°59'0 0.0
2014-Nov-22 05:34N 29°60' W 089°59'0 0.0
2014-Nov-22 04:33N 29°60' W 089°59'2 2.3
2014-Nov-22 03:33N 29°58' W 090°01'2 1.8
2014-Nov-22 02:30N 29°58' W 090°03'1 0.6
2014-Nov-22 01:32N 29°57' W 090°04'0 0.4
2014-Nov-22 00:31N 29°57' W 090°03'5 0.3
2014-Nov-21 11:04N 29°60' W 089°59'0 0.0
2014-Nov-21 10:30N 29°60' W 089°59'0 0.0
2014-Nov-21 09:32N 29°60' W 089°59'0 0.0
2014-Nov-21 06:29N 29°60' W 089°59'0 0.0
2014-Nov-21 04:23N 29°60' W 089°59'0 0.0
2014-Nov-21 03:09N 29°60' W 089°59'0 0.0
2014-Nov-21 02:27N 29°60' W 089°59'0 0.0
2014-Nov-21 01:15N 29°60' W 089°59'0 0.0
2014-Nov-21 00:33N 29°60' W 089°59'0 0.0
2014-Nov-20 23:17N 29°60' W 089°59'0 0.1
2014-Nov-20 22:28N 30°00' W 089°59'0 0.1
2014-Nov-20 21:29N 29°60' W 089°59'0 0.0
2014-Nov-20 20:25N 29°60' W 089°59'0 0.0
2014-Nov-20 19:31N 29°60' W 089°59'0 0.0
2014-Nov-20 18:33N 29°60' W 089°59'0 0.0
2014-Nov-20 17:32N 29°60' W 089°59'0 0.0
2014-Nov-20 16:31N 29°60' W 089°59'0 0.0
2014-Nov-20 15:33N 29°60' W 089°59'0 0.0
2014-Nov-20 14:32N 29°60' W 089°59'0 0.0
2014-Nov-20 13:32N 29°60' W 089°59'0 0.0
2014-Nov-20 12:33N 29°60' W 089°59'0 0.0
2014-Nov-20 11:33N 29°60' W 089°59'0 0.0
2014-Nov-20 10:12N 29°60' W 089°59'0 0.0
2014-Nov-19 17:07N 29°60' W 089°59'0 0.0
2014-Nov-19 16:29N 29°60' W 089°59'0 0.0
2014-Nov-19 14:29N 29°60' W 089°59'0 0.0
2014-Nov-19 13:33N 29°60' W 089°59'0 0.0
2014-Nov-19 12:29N 29°60' W 089°59'0 0.0
2014-Nov-19 11:21N 29°60' W 089°59'0 0.0
2014-Nov-19 09:33N 29°60' W 089°59'0 0.0
2014-Nov-19 08:20N 29°60' W 089°59'0 0.0
2014-Nov-19 07:33N 29°60' W 089°59'0 0.1
2014-Nov-19 06:23N 29°60' W 089°59'0 0.1
2014-Nov-19 05:32N 29°60' W 089°59'0 0.1
2014-Nov-19 04:33N 30°00' W 089°59'4 3.7
2014-Nov-19 03:32N 30°01' W 089°55'4 3.8
2014-Nov-19 02:32N 29°60' W 089°59'0 0.0
2014-Nov-19 01:24N 29°60' W 089°59'3 3.3
2014-Nov-19 00:33N 29°58' W 090°02'0 0.1
2014-Nov-18 23:33N 29°58' W 090°02'4 2.7
2014-Nov-18 22:10N 29°56' W 089°58'5 0.2
2014-Nov-18 02:05N 29°60' W 089°59'0 0.0
2014-Nov-18 00:30N 29°60' W 089°59'0 0.0
2014-Nov-17 23:29N 29°60' W 089°59'0 0.0
2014-Nov-17 22:27N 29°60' W 089°59'0 0.1
2014-Nov-17 21:09N 29°60' W 089°60'0 0.3
2014-Nov-17 20:30N 29°60' W 089°59'0 0.0
2014-Nov-17 19:32N 29°60' W 089°59'0 0.0
2014-Nov-17 18:30N 29°60' W 089°59'0 0.0
2014-Nov-17 17:33N 29°60' W 089°59'0 0.0
2014-Nov-17 16:32N 29°60' W 089°59'0 0.0
2014-Nov-17 15:31N 29°60' W 089°59'0 0.0
2014-Nov-17 14:33N 29°60' W 089°59'0 0.0
2014-Nov-17 13:30N 29°60' W 089°59'0 0.0
2014-Nov-17 12:12N 29°60' W 089°59'6 0.6
2014-Nov-17 02:27N 29°55' W 090°04'0 0.0
2014-Nov-17 01:29N 29°55' W 090°04'6 2.0
2014-Nov-16 22:32N 29°60' W 089°59'0 0.0
2014-Nov-16 21:33N 29°60' W 089°59'5 2.4
2014-Nov-16 19:28N 30°01' W 089°54'3 2.5
2014-Nov-16 18:09N 30°00' W 089°57'4 6.6
2014-Nov-16 17:32N 29°58' W 090°02'1 0.2
2014-Nov-16 14:33N 29°57' W 090°02'3 2.6
2014-Nov-16 13:30N 29°60' W 090°00'2 2.4
2014-Nov-16 12:32N 29°58' W 090°02'3 0.2
2014-Nov-15 20:25N 29°60' W 089°59'0 0.0
2014-Nov-15 19:24N 29°60' W 089°59'0 0.0
2014-Nov-15 18:32N 29°60' W 089°59'0 0.0
2014-Nov-15 17:25N 29°60' W 089°59'0 0.0
2014-Nov-15 16:30N 29°60' W 089°59'2 2.0
2014-Nov-15 15:26N 30°00' W 089°57'1 0.9
2014-Nov-15 14:29N 30°00' W 089°58'1 1.5
2014-Nov-15 13:33N 29°60' W 089°59'0 0.0
2014-Nov-15 12:31N 29°60' W 089°59'2 2.3
2014-Nov-15 11:26N 30°00' W 089°57'1 0.7
2014-Nov-15 10:09N 30°00' W 089°58'2 2.7
2014-Nov-15 09:33N 29°60' W 089°59'0 0.0
2014-Nov-15 08:29N 29°60' W 089°59'0 0.0
2014-Nov-15 07:26N 29°60' W 089°59'0 0.0
2014-Nov-15 06:33N 29°60' W 089°59'0 0.0
2014-Nov-14 21:29N 29°60' W 089°59'0 0.0
2014-Nov-14 19:33N 29°60' W 089°59'0 0.0
2014-Nov-14 18:11N 29°60' W 089°59'0 0.0
2014-Nov-14 17:23N 29°60' W 089°59'4 0.9
2014-Nov-14 12:31N 30°01' W 089°55'  

Dump ship's entire track history